Time;durP1;ratioP1;P1;durP2;ratioP2;P2;SDS_P1;SDS_P2;PMS_P1;PMS_P2;Temp;Humidity;BMP_temperature;BMP_pressure;BME280_temperature;BME280_humidity;BME280_pressure;Samples;Min_cycle;Max_cycle;Signal;HPM_P1;HPM_P2
2024/01/02 00:00:41;;;;;;;11.05;4.75;;;;;;;1.63;100.00;93394.81;5011557;28;20049;-70
2024/01/02 00:03:08;;;;;;;8.07;3.67;;;;;;;1.64;100.00;93407.97;5011274;28;20418;-70
2024/01/02 00:05:35;;;;;;;9.15;3.85;;;;;;;1.69;100.00;93401.44;5011608;28;20040;-70
2024/01/02 00:08:02;;;;;;;7.90;3.33;;;;;;;1.70;100.00;93405.72;5010837;28;20453;-70
2024/01/02 00:10:29;;;;;;;8.27;3.60;;;;;;;1.73;100.00;93405.75;5011116;28;20084;-70
2024/01/02 00:12:58;;;;;;;9.65;3.42;;;;;;;1.69;100.00;93398.72;5010992;28;20038;-70
2024/01/02 00:15:25;;;;;;;7.88;3.35;;;;;;;1.66;100.00;93389.44;5011220;28;20050;-70
2024/01/02 00:17:52;;;;;;;8.93;3.40;;;;;;;1.72;100.00;93392.59;5010960;28;20054;-70
2024/01/02 00:20:19;;;;;;;9.13;4.70;;;;;;;1.64;100.00;93382.84;5011335;28;20042;-71
2024/01/02 00:22:45;;;;;;;12.00;4.60;;;;;;;1.66;100.00;93375.91;5010360;28;20096;-70
2024/01/02 00:25:12;;;;;;;7.85;3.75;;;;;;;1.63;100.00;93371.25;5010294;28;20691;-70
2024/01/02 00:27:39;;;;;;;6.85;3.88;;;;;;;1.69;100.00;93374.38;5011111;28;20060;-69
2024/01/02 00:30:07;;;;;;;7.97;3.80;;;;;;;1.57;100.00;93370.81;5010403;28;20045;-70
2024/01/02 00:32:33;;;;;;;8.13;3.78;;;;;;;1.59;100.00;93362.34;5010963;28;20372;-70
2024/01/02 00:35:01;;;;;;;9.75;3.67;;;;;;;1.69;100.00;93350.84;5008683;28;20049;-70
2024/01/02 00:37:28;;;;;;;6.70;3.50;;;;;;;1.64;100.00;93339.56;5011011;28;20046;-70
2024/01/02 00:39:55;;;;;;;8.35;3.75;;;;;;;1.63;100.00;93338.00;5010489;28;20041;-70
2024/01/02 00:42:21;;;;;;;8.73;3.50;;;;;;;1.65;100.00;93341.13;5011176;28;20052;-70
2024/01/02 00:44:48;;;;;;;9.50;4.27;;;;;;;1.73;100.00;93337.31;5010371;28;20449;-70
2024/01/02 00:47:15;;;;;;;8.27;3.97;;;;;;;1.69;100.00;93328.41;5010900;28;20049;-70
2024/01/02 00:49:42;;;;;;;9.98;3.65;;;;;;;1.70;100.00;93324.56;5010735;28;20046;-70
2024/01/02 00:52:09;;;;;;;12.65;4.00;;;;;;;1.69;100.00;93325.69;5010508;28;20052;-70
2024/01/02 00:54:35;;;;;;;7.65;3.80;;;;;;;1.71;100.00;93320.69;5010687;28;20068;-70
2024/01/02 00:57:02;;;;;;;9.80;3.78;;;;;;;1.60;100.00;93323.31;5009290;28;20621;-70
2024/01/02 00:59:29;;;;;;;7.75;3.42;;;;;;;1.61;100.00;93311.34;5010434;28;20053;-70
2024/01/02 01:01:56;;;;;;;7.97;3.50;;;;;;;1.60;100.00;93312.50;5007731;28;20414;-70
2024/01/02 01:04:23;;;;;;;5.57;3.10;;;;;;;1.71;100.00;93307.97;5010625;28;20042;-70
2024/01/02 01:06:49;;;;;;;6.60;3.03;;;;;;;1.70;100.00;93308.31;5009795;28;20486;-70
2024/01/02 01:09:16;;;;;;;6.03;2.90;;;;;;;1.70;100.00;93300.97;5010463;28;20040;-70
2024/01/02 01:11:43;;;;;;;7.47;3.10;;;;;;;1.74;100.00;93295.59;5009567;28;20052;-70
2024/01/02 01:14:10;;;;;;;8.48;3.00;;;;;;;1.59;100.00;93284.69;5010006;28;20402;-70
2024/01/02 01:16:36;;;;;;;6.75;2.88;;;;;;;1.65;100.00;93287.03;5010367;28;20056;-71
2024/01/02 01:19:03;;;;;;;6.22;3.17;;;;;;;1.70;100.00;93278.56;5009752;28;20041;-70
2024/01/02 01:21:30;;;;;;;6.10;3.10;;;;;;;1.69;100.00;93285.13;5010424;28;20505;-70
2024/01/02 01:23:57;;;;;;;8.50;3.20;;;;;;;1.72;100.00;93278.97;5009836;28;20053;-70
2024/01/02 01:26:24;;;;;;;9.73;2.50;;;;;;;1.72;100.00;93284.38;5009948;28;20069;-70
2024/01/02 01:28:50;;;;;;;6.10;2.70;;;;;;;1.75;100.00;93273.59;5009830;28;20054;-70
2024/01/02 01:31:17;;;;;;;4.95;2.42;;;;;;;1.72;100.00;93282.44;5009586;28;20039;-70
2024/01/02 01:33:44;;;;;;;6.60;2.70;;;;;;;1.75;100.00;93284.41;5009876;28;20057;-70
2024/01/02 01:36:14;;;;;;;7.68;2.50;;;;;;;1.77;100.00;93284.03;5009462;28;20809;-70
2024/01/02 01:38:41;;;;;;;5.00;2.60;;;;;;;1.88;100.00;93298.41;5009827;28;20166;-70
2024/01/02 01:41:08;;;;;;;5.80;2.97;;;;;;;1.85;100.00;93299.19;4992438;28;20038;-70
2024/01/02 01:43:34;;;;;;;6.05;2.47;;;;;;;1.78;100.00;93294.47;5010019;28;20052;-70
2024/01/02 01:46:03;;;;;;;8.37;2.97;;;;;;;1.83;100.00;93293.34;5008479;28;20457;-70
2024/01/02 01:48:30;;;;;;;6.32;2.85;;;;;;;1.82;100.00;93291.03;5009779;28;20749;-70
2024/01/02 01:50:57;;;;;;;6.18;2.53;;;;;;;1.83;100.00;93292.56;5009367;28;20442;-70
2024/01/02 01:53:24;;;;;;;6.18;2.80;;;;;;;1.75;100.00;93283.63;5008632;28;20524;-70
2024/01/02 01:55:51;;;;;;;6.75;3.00;;;;;;;1.77;100.00;93282.13;5009363;28;20567;-70
2024/01/02 01:58:18;;;;;;;6.73;3.37;;;;;;;1.73;100.00;93283.22;5009926;28;20475;-70
2024/01/02 02:00:45;;;;;;;7.00;3.08;;;;;;;1.75;100.00;93278.22;5008857;28;20042;-70
2024/01/02 02:03:13;;;;;;;7.07;3.42;;;;;;;1.76;100.00;93279.78;5007223;28;20698;-70
2024/01/02 02:05:40;;;;;;;6.63;2.95;;;;;;;1.78;100.00;93278.25;5009503;28;20406;-70
2024/01/02 02:08:06;;;;;;;8.13;3.58;;;;;;;1.77;100.00;93270.50;5009262;28;20054;-70
2024/01/02 02:10:34;;;;;;;7.17;3.30;;;;;;;1.80;100.00;93270.53;5009297;28;20057;-70
2024/01/02 02:13:01;;;;;;;7.03;3.22;;;;;;;1.84;100.00;93262.44;5009053;28;20053;-70
2024/01/02 02:15:27;;;;;;;6.70;3.58;;;;;;;1.74;100.00;93260.44;5009790;28;20040;-70
2024/01/02 02:17:54;;;;;;;5.88;3.00;;;;;;;1.89;100.00;93253.19;5009029;28;20046;-70
2024/01/02 02:20:21;;;;;;;8.43;3.75;;;;;;;2.02;100.00;93250.97;5009501;28;20054;-70
2024/01/02 02:22:51;;;;;;;7.00;2.90;;;;;;;2.03;100.00;93241.69;5008223;28;20046;-70
2024/01/02 02:25:18;;;;;;;6.97;3.08;;;;;;;2.09;100.00;93238.22;5009544;28;20050;-70
2024/01/02 02:27:46;;;;;;;6.45;3.00;;;;;;;2.09;100.00;93237.47;5008499;28;20052;-71
2024/01/02 02:30:13;;;;;;;8.02;3.60;;;;;;;2.07;100.00;93231.66;4995929;28;20762;-70
2024/01/02 02:32:40;;;;;;;8.35;3.95;;;;;;;2.05;100.00;93228.56;5009652;28;20213;-70
2024/01/02 02:35:08;;;;;;;7.13;3.33;;;;;;;2.03;100.00;93214.63;5009286;28;20149;-70
2024/01/02 02:37:35;;;;;;;6.93;3.20;;;;;;;2.02;100.00;93211.16;5009374;28;20046;-69
2024/01/02 02:40:03;;;;;;;8.10;3.70;;;;;;;2.03;100.00;93206.50;5008840;28;20046;-70
2024/01/02 02:42:29;;;;;;;8.02;3.63;;;;;;;2.05;100.00;93199.56;5009487;28;20041;-70
2024/01/02 02:44:57;;;;;;;11.05;3.67;;;;;;;1.96;100.00;93201.84;5008628;28;20065;-71
2024/01/02 02:47:24;;;;;;;9.18;4.00;;;;;;;1.86;100.00;93197.91;5009445;28;20049;-70
2024/01/02 02:49:52;;;;;;;11.15;4.47;;;;;;;1.83;100.00;93200.59;5008689;28;20429;-70
2024/01/02 02:52:19;;;;;;;10.93;4.40;;;;;;;1.85;100.00;93196.38;5009535;28;20046;-72
2024/01/02 02:54:46;;;;;;;9.00;4.50;;;;;;;1.82;100.00;93194.41;5009318;28;20422;-70
2024/01/02 02:57:13;;;;;;;9.02;4.45;;;;;;;1.80;100.00;93196.72;4992464;28;20395;-70
2024/01/02 02:59:40;;;;;;;10.50;4.40;;;;;;;1.79;100.00;93195.16;5011936;28;20046;-70
2024/01/02 03:02:07;;;;;;;8.52;4.18;;;;;;;1.85;100.00;93182.84;5011147;28;20999;-71
2024/01/02 03:04:34;;;;;;;8.77;4.10;;;;;;;1.80;100.00;93185.91;5012799;28;20048;-70
2024/01/02 03:07:01;;;;;;;8.18;4.30;;;;;;;1.89;100.00;93183.66;5012266;28;20052;-70
2024/01/02 03:09:27;;;;;;;11.07;4.22;;;;;;;1.90;100.00;93173.59;5012628;28;20046;-70
2024/01/02 03:11:55;;;;;;;9.07;4.43;;;;;;;1.82;100.00;93167.34;5011039;28;20050;-70
2024/01/02 03:14:21;;;;;;;9.68;4.30;;;;;;;1.99;100.00;93171.31;5012746;28;20049;-70
2024/01/02 03:16:48;;;;;;;7.55;4.20;;;;;;;1.89;100.00;93161.19;5011981;28;20040;-70
2024/01/02 03:19:15;;;;;;;9.25;3.95;;;;;;;1.79;100.00;93157.28;5012429;28;20041;-70
2024/01/02 03:21:42;;;;;;;8.85;4.00;;;;;;;1.77;100.00;93159.59;5012533;28;20399;-71
2024/01/02 03:24:08;;;;;;;8.47;3.73;;;;;;;1.80;100.00;93148.78;5012113;28;20046;-70
2024/01/02 03:26:35;;;;;;;11.05;5.50;;;;;;;1.87;100.00;93141.88;5012264;28;20048;-70
2024/01/02 03:29:02;;;;;;;9.05;3.95;;;;;;;1.79;100.00;93130.22;5011999;28;20042;-70
2024/01/02 03:31:29;;;;;;;11.85;5.65;;;;;;;1.80;100.00;93134.50;5012333;28;20434;-70
2024/01/02 03:33:56;;;;;;;11.90;5.10;;;;;;;1.84;100.00;93124.47;5011933;28;20060;-70
2024/01/02 03:36:23;;;;;;;8.13;4.27;;;;;;;1.90;100.00;93122.94;5011132;28;20406;-71
2024/01/02 03:38:51;;;;;;;10.85;4.30;;;;;;;1.92;100.00;93119.88;5011535;28;20042;-69
2024/01/02 03:41:18;;;;;;;8.20;3.92;;;;;;;1.97;100.00;93127.59;5012105;28;20069;-70
2024/01/02 03:43:45;;;;;;;7.13;3.60;;;;;;;1.82;100.00;93112.47;5025417;28;20045;-70
2024/01/02 03:46:12;;;;;;;8.60;4.13;;;;;;;1.90;100.00;93116.78;5022006;28;20048;-70
2024/01/02 03:48:39;;;;;;;8.00;3.53;;;;;;;1.85;100.00;93101.69;5014123;28;20049;-71
2024/01/02 03:51:05;;;;;;;7.15;3.85;;;;;;;1.89;100.00;93105.19;5011366;28;20057;-70
2024/01/02 03:53:32;;;;;;;8.20;3.20;;;;;;;1.98;100.00;93097.47;5011987;28;20060;-70
2024/01/02 03:55:59;;;;;;;6.95;3.33;;;;;;;1.92;100.00;93093.59;5011462;28;20424;-70
2024/01/02 03:58:27;;;;;;;7.82;3.53;;;;;;;1.91;100.00;93083.13;5011691;28;20038;-70
2024/01/02 04:00:54;;;;;;;8.33;3.33;;;;;;;1.97;100.00;93079.69;5011271;28;20413;-70
2024/01/02 04:03:22;;;;;;;6.63;3.20;;;;;;;1.96;100.00;93072.72;5011598;28;20038;-70
2024/01/02 04:05:49;;;;;;;7.82;2.80;;;;;;;1.98;100.00;93067.69;5011298;28;20072;-70
2024/01/02 04:08:16;;;;;;;7.80;3.10;;;;;;;2.00;100.00;93061.91;5010587;28;20046;-71
2024/01/02 04:10:43;;;;;;;5.60;3.20;;;;;;;2.10;100.00;93063.09;5011817;28;20406;-70
2024/01/02 04:13:10;;;;;;;7.63;3.23;;;;;;;2.10;100.00;93049.56;5010961;28;20067;-70
2024/01/02 04:15:37;;;;;;;8.13;3.08;;;;;;;2.06;100.00;93052.28;5011564;28;20418;-70
2024/01/02 04:18:04;;;;;;;7.03;2.90;;;;;;;2.14;100.00;93047.66;5010706;28;20072;-71
2024/01/02 04:20:32;;;;;;;7.82;3.15;;;;;;;2.20;100.00;93032.59;5011567;28;20397;-70
2024/01/02 04:22:59;;;;;;;5.28;2.85;;;;;;;2.27;100.00;93035.28;5010879;28;20410;-70
2024/01/02 04:25:26;;;;;;;5.80;2.10;;;;;;;2.29;100.00;93035.69;5010389;28;20109;-70
2024/01/02 04:27:56;;;;;;;5.72;2.80;;;;;;;2.32;100.00;93028.75;5010761;28;20413;-70
2024/01/02 04:30:23;;;;;;;5.18;2.70;;;;;;;2.26;100.00;93028.34;5011285;28;20395;-70
2024/01/02 04:32:50;;;;;;;7.75;2.67;;;;;;;2.29;100.00;93030.25;5010103;28;20049;-70
2024/01/02 04:35:17;;;;;;;5.20;2.70;;;;;;;2.30;100.00;93028.34;5011230;28;20108;-69
2024/01/02 04:37:44;;;;;;;3.50;2.10;;;;;;;2.29;100.00;93024.09;5011076;28;20054;-70
2024/01/02 04:40:11;;;;;;;7.45;2.60;;;;;;;2.27;100.00;93029.09;5010316;28;20068;-70
2024/01/02 04:42:39;;;;;;;6.18;2.80;;;;;;;2.25;100.00;93023.31;5011182;28;20068;-70
2024/01/02 04:45:06;;;;;;;5.78;2.45;;;;;;;2.26;100.00;93014.81;5010126;28;20056;-70
2024/01/02 04:47:33;;;;;;;6.28;2.40;;;;;;;2.24;100.00;93019.81;5010713;28;20056;-69
2024/01/02 04:50:01;;;;;;;6.07;2.23;;;;;;;2.23;100.00;93009.38;5010272;28;20499;-69
2024/01/02 04:52:27;;;;;;;5.20;3.00;;;;;;;2.26;100.00;93005.91;5010989;28;20042;-70
2024/01/02 04:54:54;;;;;;;4.97;2.70;;;;;;;2.29;100.00;93014.03;4992556;28;20056;-70
2024/01/02 04:57:21;;;;;;;5.10;2.55;;;;;;;2.30;100.00;93004.00;5010749;28;20046;-72
2024/01/02 04:59:48;;;;;;;5.45;2.63;;;;;;;2.30;100.00;93012.09;5009975;28;20095;-70
2024/01/02 05:02:15;;;;;;;6.03;2.37;;;;;;;2.39;100.00;92994.34;5010826;28;20042;-70
2024/01/02 05:04:42;;;;;;;4.45;2.00;;;;;;;2.44;100.00;93004.00;5010525;28;20058;-70
2024/01/02 05:07:09;;;;;;;5.20;2.42;;;;;;;2.51;100.00;92995.84;5010056;28;20041;-70
2024/01/02 05:09:35;;;;;;;4.68;2.03;;;;;;;2.60;100.00;92996.25;5009911;28;20377;-70
2024/01/02 05:12:02;;;;;;;5.40;2.10;;;;;;;2.58;100.00;92993.16;5009990;28;20394;-70
2024/01/02 05:14:29;;;;;;;4.77;1.90;;;;;;;2.75;100.00;92994.31;5009246;28;20045;-71
2024/01/02 05:16:56;;;;;;;4.65;1.83;;;;;;;2.76;100.00;92984.25;5009897;28;20046;-70
2024/01/02 05:19:23;;;;;;;4.10;2.00;;;;;;;2.82;100.00;93001.66;5010316;28;20037;-70
2024/01/02 05:21:53;;;;;;;5.50;2.17;;;;;;;2.88;100.00;92996.59;5010003;28;20418;-70
2024/01/02 05:24:19;;;;;;;6.82;3.70;;;;;;;2.94;100.00;92997.78;5010190;28;20042;-70
2024/01/02 05:26:46;;;;;;;3.77;2.13;;;;;;;2.97;100.00;92992.34;5010344;28;20049;-70
2024/01/02 05:29:13;;;;;;;2.85;1.50;;;;;;;3.11;100.00;92991.53;5007892;28;21298;-70
2024/01/02 05:31:39;;;;;;;3.53;1.70;;;;;;;3.18;100.00;92985.34;5008657;28;20046;-70
2024/01/02 05:34:06;;;;;;;3.95;1.90;;;;;;;3.16;100.00;92974.91;5009620;28;20046;-70
2024/01/02 05:36:33;;;;;;;3.88;2.10;;;;;;;3.18;100.00;92986.13;5010160;28;20461;-70
2024/01/02 05:39:00;;;;;;;4.83;2.63;;;;;;;3.08;100.00;92975.28;5009570;28;20049;-70
2024/01/02 05:41:26;;;;;;;3.80;2.08;;;;;;;3.07;100.00;92982.66;5009818;28;20041;-70
2024/01/02 05:43:54;;;;;;;3.90;2.28;;;;;;;3.09;100.00;92982.25;5009496;28;20049;-70
2024/01/02 05:46:20;;;;;;;4.68;2.00;;;;;;;3.16;100.00;92993.88;5009637;28;20050;-70
2024/01/02 05:48:47;;;;;;;4.15;2.88;;;;;;;3.15;100.00;92978.00;5009200;28;20057;-70
2024/01/02 05:51:17;;;;;;;4.53;2.60;;;;;;;3.18;100.00;92988.06;5010042;28;20049;-70
2024/01/02 05:53:44;;;;;;;5.20;2.90;;;;;;;3.19;100.00;92995.78;4976350;28;20434;-72
2024/01/02 05:56:12;;;;;;;4.03;2.22;;;;;;;3.19;100.00;92979.53;4998512;28;20046;-69
2024/01/02 05:58:39;;;;;;;3.90;1.83;;;;;;;3.22;100.00;92979.91;4997238;28;20103;-69
2024/01/02 06:01:06;;;;;;;4.20;2.55;;;;;;;3.23;100.00;92976.03;5007960;28;20046;-70
2024/01/02 06:03:32;;;;;;;4.73;2.80;;;;;;;3.24;100.00;92972.16;5009888;28;20034;-69
2024/01/02 06:05:59;;;;;;;5.38;1.88;;;;;;;3.23;100.00;92978.75;5009096;28;20487;-70
2024/01/02 06:08:26;;;;;;;6.38;3.47;;;;;;;3.30;100.00;92976.00;5009274;28;20054;-69
2024/01/02 06:10:53;;;;;;;4.03;2.63;;;;;;;3.22;100.00;92969.84;5009335;28;20056;-70
2024/01/02 06:13:20;;;;;;;5.93;3.13;;;;;;;3.31;100.00;92962.06;5009455;28;20056;-69
2024/01/02 06:15:46;;;;;;;3.30;1.80;;;;;;;3.30;100.00;92967.88;5009685;28;20426;-69
2024/01/02 06:18:13;;;;;;;3.35;1.75;;;;;;;3.20;100.00;92967.53;5008641;28;20686;-69
2024/01/02 06:20:41;;;;;;;3.97;2.13;;;;;;;3.19;100.00;92973.34;5009407;28;20042;-69
2024/01/02 06:23:08;;;;;;;4.03;1.38;;;;;;;3.10;100.00;92965.63;4991552;28;20056;-69
2024/01/02 06:25:35;;;;;;;3.70;2.00;;;;;;;3.14;100.00;92965.59;5009700;28;20042;-69
2024/01/02 06:28:02;;;;;;;4.30;2.20;;;;;;;3.11;100.00;92975.28;5007617;28;20042;-69
2024/01/02 06:30:29;;;;;;;3.60;2.20;;;;;;;3.18;100.00;92959.00;5009622;28;20033;-69
2024/01/02 06:32:56;;;;;;;2.63;1.65;;;;;;;3.16;100.00;92972.19;5011514;28;20119;-69
2024/01/02 06:35:23;;;;;;;3.70;1.92;;;;;;;3.17;100.00;92945.84;5013505;28;20048;-69
2024/01/02 06:37:50;;;;;;;3.08;1.42;;;;;;;3.18;100.00;92956.31;5012647;28;20052;-71
2024/01/02 06:40:17;;;;;;;4.50;2.07;;;;;;;3.18;100.00;92964.44;5013194;28;20056;-69
2024/01/02 06:42:43;;;;;;;5.85;2.65;;;;;;;3.18;100.00;92945.47;5013136;28;20046;-69
2024/01/02 06:45:10;;;;;;;11.02;5.55;;;;;;;3.11;100.00;92950.13;5012600;28;20042;-69
2024/01/02 06:47:37;;;;;;;3.72;1.92;;;;;;;3.19;100.00;92951.66;5012813;28;20046;-70
2024/01/02 06:50:05;;;;;;;4.63;2.22;;;;;;;3.25;100.00;92939.22;5012438;28;20413;-69
2024/01/02 06:52:32;;;;;;;5.77;2.70;;;;;;;3.26;100.00;92951.63;5012873;28;20428;-70
2024/01/02 06:54:58;;;;;;;4.35;2.45;;;;;;;3.25;100.00;92943.88;5012581;28;20042;-69
2024/01/02 06:57:25;;;;;;;6.82;2.80;;;;;;;3.27;100.00;92941.56;5012960;28;20038;-69
2024/01/02 06:59:52;;;;;;;3.03;1.70;;;;;;;3.34;100.00;92938.78;5012383;28;20042;-69
2024/01/02 07:02:19;;;;;;;3.92;1.85;;;;;;;3.42;100.00;92945.75;5012886;28;20087;-69
2024/01/02 07:04:46;;;;;;;4.47;1.80;;;;;;;3.53;100.00;92943.75;5013039;28;20433;-69
2024/01/02 07:07:13;;;;;;;3.40;1.80;;;;;;;3.58;100.00;92937.94;5011673;28;20759;-69
2024/01/02 07:09:40;;;;;;;2.97;1.48;;;;;;;3.51;100.00;92932.53;5012341;28;20069;-70
2024/01/02 07:12:07;;;;;;;3.80;1.92;;;;;;;3.60;100.00;92924.75;5010614;28;20056;-69
2024/01/02 07:14:34;;;;;;;2.53;1.42;;;;;;;3.72;100.00;92931.69;5011308;28;20121;-69
2024/01/02 07:17:00;;;;;;;3.13;1.73;;;;;;;3.65;100.00;92928.97;4996079;28;20273;-70
2024/01/02 07:19:27;;;;;;;4.47;1.90;;;;;;;3.72;100.00;92936.31;5012441;28;20038;-71
2024/01/02 07:21:54;;;;;;;3.40;1.30;;;;;;;3.80;100.00;92930.47;5011690;28;20041;-70
2024/01/02 07:24:21;;;;;;;3.30;1.33;;;;;;;3.84;100.00;92929.66;5012612;28;20041;-69
2024/01/02 07:26:47;;;;;;;2.50;1.23;;;;;;;3.88;100.00;92942.03;5011758;28;20053;-67
2024/01/02 07:29:17;;;;;;;3.20;1.73;;;;;;;3.91;100.00;92927.69;5012744;28;20048;-69
2024/01/02 07:31:44;;;;;;;2.90;1.60;;;;;;;3.93;100.00;92932.72;5012099;28;20046;-69
2024/01/02 07:34:13;;;;;;;2.08;1.17;;;;;;;3.99;100.00;92933.84;5011604;28;20054;-69
2024/01/02 07:36:40;;;;;;;2.63;0.70;;;;;;;4.01;100.00;92945.06;5012277;28;20064;-70
2024/01/02 07:39:06;;;;;;;2.08;1.15;;;;;;;4.12;100.00;92931.41;5011408;28;20052;-69
2024/01/02 07:41:33;;;;;;;2.60;1.40;;;;;;;4.10;100.00;92925.63;5011016;28;20107;-69
2024/01/02 07:44:00;;;;;;;2.97;1.13;;;;;;;4.12;100.00;92937.63;5010286;28;20054;-70
2024/01/02 07:46:27;;;;;;;3.38;1.40;;;;;;;4.15;100.00;92930.63;5012036;28;20421;-69
2024/01/02 07:48:54;;;;;;;3.67;1.50;;;;;;;4.16;100.00;92943.03;5004392;28;20053;-69
2024/01/02 07:51:21;;;;;;;4.53;1.50;;;;;;;4.19;100.00;92947.66;5011027;28;20046;-70
2024/01/02 07:53:48;;;;;;;3.93;1.70;;;;;;;4.18;100.00;92944.16;5011659;28;20049;-70
2024/01/02 07:56:19;;;;;;;4.10;1.20;;;;;;;4.17;100.00;92942.63;5011945;28;20054;-69
2024/01/02 07:58:48;;;;;;;2.88;1.50;;;;;;;4.20;100.00;92958.16;5011586;28;20042;-70
2024/01/02 08:01:17;;;;;;;3.67;1.60;;;;;;;4.25;100.00;92970.53;5010313;28;20403;-70
2024/01/02 08:03:44;;;;;;;3.25;1.20;;;;;;;4.30;100.00;92955.72;5011162;28;20052;-69
2024/01/02 08:06:11;;;;;;;4.07;1.70;;;;;;;4.39;100.00;92959.56;5011087;28;20111;-70
2024/01/02 08:08:38;;;;;;;2.05;1.10;;;;;;;4.49;100.00;92965.31;5011411;28;20406;-69
2024/01/02 08:11:05;;;;;;;3.15;1.15;;;;;;;4.46;100.00;92949.81;5011023;28;20048;-70
2024/01/02 08:13:32;;;;;;;3.05;1.70;;;;;;;4.42;100.00;92962.63;5010070;28;20095;-69
2024/01/02 08:15:58;;;;;;;2.65;1.60;;;;;;;4.45;100.00;92970.78;5010985;28;20060;-69
2024/01/02 08:18:25;;;;;;;2.00;1.00;;;;;;;4.50;100.00;92950.53;5011329;28;20119;-71
2024/01/02 08:20:52;;;;;;;1.77;0.95;;;;;;;4.53;100.00;92972.25;5010643;28;20412;-70
2024/01/02 08:23:19;;;;;;;2.30;1.02;;;;;;;4.47;100.00;92973.84;5011205;28;20046;-69
2024/01/02 08:25:46;;;;;;;2.60;1.33;;;;;;;4.49;100.00;92962.59;5011411;28;20042;-70
2024/01/02 08:28:12;;;;;;;4.00;1.20;;;;;;;4.52;100.00;92973.41;5009609;28;20718;-69
2024/01/02 08:30:39;;;;;;;3.10;1.40;;;;;;;4.55;100.00;92971.88;5010681;28;20379;-69
2024/01/02 08:33:06;;;;;;;2.00;0.77;;;;;;;4.60;100.00;92966.75;5010374;28;20115;-68
2024/01/02 08:35:33;;;;;;;3.55;1.70;;;;;;;4.63;100.00;92964.41;5010766;28;20103;-70
2024/01/02 08:38:00;;;;;;;2.63;1.10;;;;;;;4.60;100.00;92963.28;5010574;28;20058;-68
2024/01/02 08:40:27;;;;;;;2.30;1.25;;;;;;;4.64;100.00;92961.28;5010727;28;20042;-69
2024/01/02 08:42:54;;;;;;;2.00;1.03;;;;;;;4.70;100.00;92946.09;5010532;28;20057;-68
2024/01/02 08:45:20;;;;;;;2.00;0.90;;;;;;;4.76;100.00;92941.00;5010850;28;20070;-68
2024/01/02 08:47:47;;;;;;;3.42;1.40;;;;;;;4.76;100.00;92962.75;5010194;28;20438;-68
2024/01/02 08:50:14;;;;;;;2.70;1.38;;;;;;;4.74;100.00;92957.72;5010836;28;20132;-68
2024/01/02 08:52:41;;;;;;;2.20;1.20;;;;;;;4.77;100.00;92950.72;5009383;28;20037;-68
2024/01/02 08:55:08;;;;;;;2.30;1.20;;;;;;;4.76;100.00;92958.06;5009766;28;20058;-68
2024/01/02 08:57:35;;;;;;;1.92;0.90;;;;;;;4.83;100.00;92959.19;5010251;28;20471;-68
2024/01/02 09:00:03;;;;;;;2.00;1.00;;;;;;;4.88;100.00;92951.38;5008558;28;20050;-68
2024/01/02 09:02:29;;;;;;;2.45;1.10;;;;;;;4.93;100.00;92947.44;5010361;28;20126;-68
2024/01/02 09:04:56;;;;;;;2.35;1.13;;;;;;;4.92;100.00;92948.63;5009989;28;20058;-70
2024/01/02 09:07:23;;;;;;;1.80;0.83;;;;;;;4.92;100.00;92951.34;5010136;28;20037;-69
2024/01/02 09:09:50;;;;;;;2.10;0.90;;;;;;;4.94;100.00;92959.88;5009379;28;20053;-66
2024/01/02 09:12:17;;;;;;;1.50;0.60;;;;;;;4.94;100.00;92947.03;5009774;28;20161;-68
2024/01/02 09:14:44;;;;;;;2.22;0.60;;;;;;;5.04;100.00;92959.00;5010292;28;20072;-68
2024/01/02 09:17:11;;;;;;;2.22;1.10;;;;;;;5.03;100.00;92967.56;5009267;28;20054;-69
2024/01/02 09:19:37;;;;;;;1.93;1.00;;;;;;;5.14;100.00;92963.56;5010286;28;20054;-69
2024/01/02 09:22:04;;;;;;;1.63;0.68;;;;;;;5.16;100.00;92972.06;5009381;28;20054;-69
2024/01/02 09:24:31;;;;;;;2.50;1.30;;;;;;;5.20;100.00;92972.81;5008904;28;20040;-68
2024/01/02 09:27:00;;;;;;;2.00;1.05;;;;;;;5.20;100.00;92977.50;5009200;28;20054;-69
2024/01/02 09:29:27;;;;;;;1.90;0.90;;;;;;;5.22;100.00;92982.53;5009499;28;20064;-69
2024/01/02 09:31:54;;;;;;;2.03;0.90;;;;;;;5.27;100.00;92980.16;5009276;28;20052;-69
2024/01/02 09:34:20;;;;;;;1.88;0.98;;;;;;;5.24;100.00;92983.66;5009370;28;20046;-70
2024/01/02 09:36:50;;;;;;;2.28;0.85;;;;;;;5.29;100.00;92977.00;5009581;28;20046;-65
2024/01/02 09:39:18;;;;;;;2.20;1.20;;;;;;;5.32;100.00;92979.69;5009574;28;20069;-68
2024/01/02 09:42:52;;;;;;;2.10;1.02;;;;;;;5.40;100.00;92962.09;5009706;28;20050;-69
2024/01/02 09:46:10;;;;;;;1.67;0.60;;;;;;;5.62;100.00;92980.16;4957125;28;21773;-69
2024/01/02 09:49:03;;;;;;;1.70;0.70;;;;;;;5.48;100.00;92968.25;4901526;28;20571;-68
2024/01/02 09:52:21;;;;;;;1.80;0.85;;;;;;;5.56;100.00;92974.38;5008738;28;21429;-69
2024/01/02 09:55:00;;;;;;;2.40;1.05;;;;;;;5.63;100.00;92960.69;4979807;28;20540;-66
2024/01/02 09:58:19;;;;;;;1.90;0.90;;;;;;;5.53;100.00;92967.03;5009785;28;20496;-68
2024/01/02 10:01:08;;;;;;;1.50;0.70;;;;;;;5.51;100.00;92956.53;5006557;28;20060;-69
2024/01/02 10:03:59;;;;;;;1.80;1.00;;;;;;;5.47;100.00;92957.75;5008700;28;20152;-70
2024/01/02 10:06:29;;;;;;;1.80;0.80;;;;;;;5.62;100.00;92958.38;5008134;28;20774;-68
2024/01/02 10:09:24;;;;;;;1.40;0.63;;;;;;;5.58;100.00;92937.41;5007620;28;20210;-68
2024/01/02 10:12:06;;;;;;;2.00;0.90;;;;;;;5.66;100.00;92956.41;5005578;28;20049;-66
2024/01/02 10:14:54;;;;;;;1.60;0.80;;;;;;;5.66;100.00;92950.94;5009571;28;20046;-69
2024/01/02 10:17:54;;;;;;;1.88;0.82;;;;;;;5.70;100.00;92940.78;5008715;28;20064;-70
2024/01/02 10:21:11;;;;;;;1.60;0.88;;;;;;;5.69;100.00;92941.94;5008562;28;20566;-68
2024/01/02 10:24:28;;;;;;;1.60;0.70;;;;;;;5.56;100.00;92939.00;4967017;28;21045;-69
2024/01/02 10:27:21;;;;;;;2.20;1.30;;;;;;;5.67;100.00;92931.47;4926326;28;21578;-69
2024/01/02 10:30:07;;;;;;;2.60;1.10;;;;;;;5.69;100.00;92934.56;5008772;28;20483;-66
2024/01/02 10:32:50;;;;;;;2.30;1.00;;;;;;;5.87;100.00;92939.75;5009616;28;20040;-68
2024/01/02 10:35:37;;;;;;;1.63;0.80;;;;;;;5.83;100.00;92930.88;4997347;28;20151;-69
2024/01/02 10:38:21;;;;;;;1.70;0.88;;;;;;;5.79;100.00;92920.06;5009044;28;20395;-69
2024/01/02 10:41:16;;;;;;;1.90;0.80;;;;;;;5.72;100.00;92919.38;5008968;28;20679;-69
2024/01/02 10:44:10;;;;;;;1.80;0.90;;;;;;;5.98;100.00;92905.03;5009800;28;20046;-68
2024/01/02 10:46:47;;;;;;;1.98;0.90;;;;;;;5.96;100.00;92893.00;5008578;28;20402;-68
2024/01/02 10:49:28;;;;;;;2.17;1.20;;;;;;;5.99;100.00;92898.38;5007405;28;20663;-69
2024/01/02 10:52:03;;;;;;;1.60;0.80;;;;;;;6.00;100.00;92899.19;5007813;28;20050;-69
2024/01/02 10:54:51;;;;;;;1.63;0.73;;;;;;;5.90;100.00;92898.13;5009516;28;20164;-70
2024/01/02 10:57:37;;;;;;;2.43;1.00;;;;;;;6.03;100.00;92903.03;5008243;28;20674;-70
2024/01/02 11:00:10;;;;;;;2.00;0.90;;;;;;;5.96;100.00;92898.47;5008636;28;20046;-70
2024/01/02 11:02:46;;;;;;;3.20;1.42;;;;;;;6.11;100.00;92899.00;5009400;28;20049;-69
2024/01/02 11:05:40;;;;;;;2.88;1.48;;;;;;;6.17;100.00;92903.56;5007560;28;20034;-71
2024/01/02 11:08:30;;;;;;;1.83;0.65;;;;;;;6.02;100.00;92885.13;5008314;28;20416;-70
2024/01/02 11:11:01;;;;;;;2.93;1.30;;;;;;;6.06;100.00;92877.72;5008114;28;20058;-70
2024/01/02 11:13:30;;;;;;;2.53;1.10;;;;;;;6.08;100.00;92886.22;5009285;28;20394;-71
2024/01/02 11:16:02;;;;;;;2.00;0.90;;;;;;;5.99;100.00;92884.00;5008569;28;20054;-70
2024/01/02 11:18:34;;;;;;;2.33;0.88;;;;;;;5.89;100.00;92868.56;5010870;28;20406;-69
2024/01/02 11:21:08;;;;;;;2.38;1.08;;;;;;;5.96;100.00;92868.50;5011840;28;20689;-70
2024/01/02 11:23:40;;;;;;;2.13;0.80;;;;;;;5.98;100.00;92855.25;5012495;28;20037;-69
2024/01/02 11:26:16;;;;;;;1.90;1.00;;;;;;;6.01;100.00;92851.69;5011932;28;20050;-70
2024/01/02 11:28:46;;;;;;;2.17;0.80;;;;;;;6.00;100.00;92848.19;5012272;28;20042;-69
2024/01/02 11:31:13;;;;;;;2.58;1.15;;;;;;;6.14;100.00;92844.50;5011341;28;20135;-70
2024/01/02 11:34:04;;;;;;;2.92;1.20;;;;;;;6.17;100.00;92843.66;5012141;28;20046;-69
2024/01/02 11:36:54;;;;;;;1.90;1.07;;;;;;;6.13;100.00;92837.47;5011259;28;20050;-71
2024/01/02 11:39:40;;;;;;;1.50;0.70;;;;;;;6.17;100.00;92827.31;5011218;28;20739;-70
2024/01/02 11:42:13;;;;;;;1.92;0.90;;;;;;;6.00;100.00;92828.38;5011457;28;20068;-69
2024/01/02 11:44:48;;;;;;;2.67;0.98;;;;;;;6.07;100.00;92805.69;5012207;28;20160;-71
2024/01/02 11:47:40;;;;;;;3.70;1.42;;;;;;;6.06;100.00;92807.66;4999508;28;20642;-68